sensor_id;sensor_type;location;lat;lon;timestamp;P1;durP1;ratioP1;P2;durP2;ratioP2
12878;SDS011;20617;49.476;10.986;2023-03-04T00:01:42;19.63;;;12.38;;
12878;SDS011;20617;49.476;10.986;2023-03-04T00:05:51;17.42;;;11.95;;
12878;SDS011;20617;49.476;10.986;2023-03-04T00:07:59;18.42;;;11.48;;
12878;SDS011;20617;49.476;10.986;2023-03-04T00:10:04;19.63;;;12.85;;
12878;SDS011;20617;49.476;10.986;2023-03-04T00:12:10;18.75;;;12.05;;
12878;SDS011;20617;49.476;10.986;2023-03-04T00:14:15;19.70;;;12.20;;
12878;SDS011;20617;49.476;10.986;2023-03-04T00:16:20;18.88;;;12.02;;
12878;SDS011;20617;49.476;10.986;2023-03-04T00:18:27;20.98;;;12.18;;
12878;SDS011;20617;49.476;10.986;2023-03-04T00:20:35;19.40;;;13.65;;
12878;SDS011;20617;49.476;10.986;2023-03-04T00:22:40;20.85;;;13.07;;
12878;SDS011;20617;49.476;10.986;2023-03-04T00:24:47;22.02;;;13.57;;
12878;SDS011;20617;49.476;10.986;2023-03-04T00:26:52;19.42;;;13.38;;
12878;SDS011;20617;49.476;10.986;2023-03-04T00:28:57;24.55;;;12.90;;
12878;SDS011;20617;49.476;10.986;2023-03-04T00:31:02;20.35;;;12.20;;
12878;SDS011;20617;49.476;10.986;2023-03-04T00:33:07;22.48;;;14.30;;
12878;SDS011;20617;49.476;10.986;2023-03-04T00:35:12;25.25;;;14.15;;
12878;SDS011;20617;49.476;10.986;2023-03-04T00:37:16;21.23;;;13.70;;
12878;SDS011;20617;49.476;10.986;2023-03-04T00:39:21;18.67;;;12.55;;
12878;SDS011;20617;49.476;10.986;2023-03-04T00:41:29;20.08;;;11.63;;
12878;SDS011;20617;49.476;10.986;2023-03-04T00:43:34;18.42;;;13.07;;
12878;SDS011;20617;49.476;10.986;2023-03-04T00:45:39;22.02;;;13.43;;
12878;SDS011;20617;49.476;10.986;2023-03-04T00:47:43;19.10;;;12.27;;
12878;SDS011;20617;49.476;10.986;2023-03-04T00:49:48;18.65;;;12.98;;
12878;SDS011;20617;49.476;10.986;2023-03-04T00:51:53;20.27;;;13.60;;
12878;SDS011;20617;49.476;10.986;2023-03-04T00:53:58;17.42;;;12.13;;
12878;SDS011;20617;49.476;10.986;2023-03-04T00:56:03;18.25;;;12.80;;
12878;SDS011;20617;49.476;10.986;2023-03-04T00:58:11;19.30;;;12.23;;
12878;SDS011;20617;49.476;10.986;2023-03-04T01:00:18;19.52;;;13.20;;
12878;SDS011;20617;49.476;10.986;2023-03-04T01:02:24;18.10;;;12.98;;
12878;SDS011;20617;49.476;10.986;2023-03-04T01:04:29;16.42;;;11.13;;
12878;SDS011;20617;49.476;10.986;2023-03-04T01:06:34;19.00;;;10.82;;
12878;SDS011;20617;49.476;10.986;2023-03-04T01:08:39;19.52;;;12.18;;
12878;SDS011;20617;49.476;10.986;2023-03-04T01:10:44;18.73;;;12.48;;
12878;SDS011;20617;49.476;10.986;2023-03-04T01:12:49;18.52;;;12.68;;
12878;SDS011;20617;49.476;10.986;2023-03-04T01:14:57;20.05;;;13.60;;
12878;SDS011;20617;49.476;10.986;2023-03-04T01:17:02;19.05;;;12.02;;
12878;SDS011;20617;49.476;10.986;2023-03-04T01:19:07;18.60;;;11.65;;
12878;SDS011;20617;49.476;10.986;2023-03-04T01:21:12;19.40;;;12.35;;
12878;SDS011;20617;49.476;10.986;2023-03-04T01:23:17;18.65;;;12.30;;
12878;SDS011;20617;49.476;10.986;2023-03-04T01:25:22;23.77;;;13.23;;
12878;SDS011;20617;49.476;10.986;2023-03-04T01:27:27;21.73;;;12.75;;
12878;SDS011;20617;49.476;10.986;2023-03-04T01:29:31;18.60;;;12.70;;
12878;SDS011;20617;49.476;10.986;2023-03-04T01:31:39;18.70;;;13.13;;
12878;SDS011;20617;49.476;10.986;2023-03-04T01:33:44;19.77;;;12.38;;
12878;SDS011;20617;49.476;10.986;2023-03-04T01:35:48;22.55;;;12.40;;
12878;SDS011;20617;49.476;10.986;2023-03-04T01:37:53;19.38;;;12.95;;
12878;SDS011;20617;49.476;10.986;2023-03-04T01:39:58;20.70;;;12.57;;
12878;SDS011;20617;49.476;10.986;2023-03-04T01:42:03;19.58;;;11.15;;
12878;SDS011;20617;49.476;10.986;2023-03-04T01:44:08;20.35;;;12.13;;
12878;SDS011;20617;49.476;10.986;2023-03-04T01:46:14;17.08;;;11.18;;
12878;SDS011;20617;49.476;10.986;2023-03-04T01:48:23;18.80;;;11.02;;
12878;SDS011;20617;49.476;10.986;2023-03-04T01:50:31;16.80;;;11.35;;
12878;SDS011;20617;49.476;10.986;2023-03-04T01:52:37;18.02;;;11.35;;
12878;SDS011;20617;49.476;10.986;2023-03-04T01:54:43;16.58;;;11.15;;
12878;SDS011;20617;49.476;10.986;2023-03-04T01:56:49;16.95;;;11.10;;
12878;SDS011;20617;49.476;10.986;2023-03-04T01:59:06;15.48;;;10.13;;
12878;SDS011;20617;49.476;10.986;2023-03-04T02:01:12;15.25;;;10.60;;
12878;SDS011;20617;49.476;10.986;2023-03-04T02:03:17;15.30;;;10.57;;
12878;SDS011;20617;49.476;10.986;2023-03-04T02:05:26;15.20;;;10.93;;
12878;SDS011;20617;49.476;10.986;2023-03-04T02:07:31;15.40;;;10.60;;
12878;SDS011;20617;49.476;10.986;2023-03-04T02:09:37;14.82;;;9.85;;
12878;SDS011;20617;49.476;10.986;2023-03-04T02:11:42;13.60;;;9.48;;
12878;SDS011;20617;49.476;10.986;2023-03-04T02:13:49;15.40;;;9.85;;
12878;SDS011;20617;49.476;10.986;2023-03-04T02:15:55;16.88;;;10.45;;
12878;SDS011;20617;49.476;10.986;2023-03-04T02:18:00;15.25;;;9.48;;
12878;SDS011;20617;49.476;10.986;2023-03-04T02:20:08;15.13;;;10.52;;
12878;SDS011;20617;49.476;10.986;2023-03-04T02:22:24;14.00;;;9.50;;
12878;SDS011;20617;49.476;10.986;2023-03-04T02:24:30;15.00;;;9.85;;
12878;SDS011;20617;49.476;10.986;2023-03-04T02:26:42;13.15;;;9.35;;
12878;SDS011;20617;49.476;10.986;2023-03-04T02:28:49;14.15;;;9.82;;
12878;SDS011;20617;49.476;10.986;2023-03-04T02:30:55;15.52;;;9.93;;
12878;SDS011;20617;49.476;10.986;2023-03-04T02:33:00;15.05;;;9.60;;
12878;SDS011;20617;49.476;10.986;2023-03-04T02:35:07;15.05;;;10.60;;
12878;SDS011;20617;49.476;10.986;2023-03-04T02:37:22;13.27;;;9.15;;
12878;SDS011;20617;49.476;10.986;2023-03-04T02:39:30;14.00;;;9.65;;
12878;SDS011;20617;49.476;10.986;2023-03-04T02:41:37;14.80;;;9.82;;
12878;SDS011;20617;49.476;10.986;2023-03-04T02:43:49;13.13;;;8.75;;
12878;SDS011;20617;49.476;10.986;2023-03-04T02:45:57;15.30;;;10.43;;
12878;SDS011;20617;49.476;10.986;2023-03-04T02:48:05;15.65;;;10.45;;
12878;SDS011;20617;49.476;10.986;2023-03-04T02:50:10;14.32;;;10.30;;
12878;SDS011;20617;49.476;10.986;2023-03-04T02:52:17;14.48;;;10.27;;
12878;SDS011;20617;49.476;10.986;2023-03-04T02:54:23;15.38;;;9.75;;
12878;SDS011;20617;49.476;10.986;2023-03-04T02:58:34;14.85;;;9.75;;
12878;SDS011;20617;49.476;10.986;2023-03-04T03:00:41;14.55;;;9.82;;
12878;SDS011;20617;49.476;10.986;2023-03-04T03:02:47;16.02;;;10.43;;
12878;SDS011;20617;49.476;10.986;2023-03-04T03:04:52;15.13;;;9.35;;
12878;SDS011;20617;49.476;10.986;2023-03-04T03:06:59;15.98;;;10.50;;
12878;SDS011;20617;49.476;10.986;2023-03-04T03:09:05;15.70;;;9.82;;
12878;SDS011;20617;49.476;10.986;2023-03-04T03:11:10;15.77;;;10.27;;
12878;SDS011;20617;49.476;10.986;2023-03-04T03:13:15;15.18;;;10.25;;
12878;SDS011;20617;49.476;10.986;2023-03-04T03:15:20;14.05;;;9.95;;
12878;SDS011;20617;49.476;10.986;2023-03-04T03:19:35;14.20;;;9.55;;
12878;SDS011;20617;49.476;10.986;2023-03-04T03:21:41;16.05;;;10.82;;
12878;SDS011;20617;49.476;10.986;2023-03-04T03:23:46;16.42;;;10.90;;
12878;SDS011;20617;49.476;10.986;2023-03-04T03:25:51;17.08;;;10.95;;
12878;SDS011;20617;49.476;10.986;2023-03-04T03:27:56;18.25;;;10.75;;
12878;SDS011;20617;49.476;10.986;2023-03-04T03:30:01;16.58;;;11.20;;
12878;SDS011;20617;49.476;10.986;2023-03-04T03:32:05;16.60;;;11.23;;
12878;SDS011;20617;49.476;10.986;2023-03-04T03:34:13;16.38;;;11.02;;
12878;SDS011;20617;49.476;10.986;2023-03-04T03:36:21;20.15;;;12.80;;
12878;SDS011;20617;49.476;10.986;2023-03-04T03:38:26;20.65;;;12.88;;
12878;SDS011;20617;49.476;10.986;2023-03-04T03:40:31;21.63;;;13.48;;
12878;SDS011;20617;49.476;10.986;2023-03-04T03:42:36;19.15;;;12.27;;
12878;SDS011;20617;49.476;10.986;2023-03-04T03:44:40;19.10;;;12.95;;
12878;SDS011;20617;49.476;10.986;2023-03-04T03:46:45;19.95;;;13.68;;
12878;SDS011;20617;49.476;10.986;2023-03-04T03:48:50;20.73;;;13.65;;
12878;SDS011;20617;49.476;10.986;2023-03-04T03:50:57;21.90;;;13.80;;
12878;SDS011;20617;49.476;10.986;2023-03-04T03:53:02;20.08;;;13.55;;
12878;SDS011;20617;49.476;10.986;2023-03-04T03:55:08;21.13;;;13.13;;
12878;SDS011;20617;49.476;10.986;2023-03-04T03:57:13;22.20;;;14.85;;
12878;SDS011;20617;49.476;10.986;2023-03-04T03:59:18;20.35;;;13.35;;
12878;SDS011;20617;49.476;10.986;2023-03-04T04:01:24;20.38;;;13.73;;
12878;SDS011;20617;49.476;10.986;2023-03-04T04:03:29;23.63;;;14.02;;
12878;SDS011;20617;49.476;10.986;2023-03-04T04:05:34;18.02;;;12.43;;
12878;SDS011;20617;49.476;10.986;2023-03-04T04:07:41;20.83;;;12.60;;
12878;SDS011;20617;49.476;10.986;2023-03-04T04:09:46;18.30;;;12.55;;
12878;SDS011;20617;49.476;10.986;2023-03-04T04:11:51;18.92;;;12.85;;
12878;SDS011;20617;49.476;10.986;2023-03-04T04:13:56;21.35;;;13.85;;
12878;SDS011;20617;49.476;10.986;2023-03-04T04:16:00;17.70;;;12.48;;
12878;SDS011;20617;49.476;10.986;2023-03-04T04:20:11;18.95;;;12.20;;
12878;SDS011;20617;49.476;10.986;2023-03-04T04:24:24;18.90;;;12.48;;
12878;SDS011;20617;49.476;10.986;2023-03-04T04:26:29;17.48;;;12.20;;
12878;SDS011;20617;49.476;10.986;2023-03-04T04:28:34;19.50;;;12.30;;
12878;SDS011;20617;49.476;10.986;2023-03-04T04:30:39;17.88;;;12.13;;
12878;SDS011;20617;49.476;10.986;2023-03-04T04:32:44;19.17;;;12.68;;
12878;SDS011;20617;49.476;10.986;2023-03-04T04:34:49;19.92;;;12.73;;
12878;SDS011;20617;49.476;10.986;2023-03-04T04:36:54;20.88;;;13.10;;
12878;SDS011;20617;49.476;10.986;2023-03-04T04:41:07;20.65;;;12.68;;
12878;SDS011;20617;49.476;10.986;2023-03-04T04:43:23;18.95;;;13.07;;
12878;SDS011;20617;49.476;10.986;2023-03-04T04:45:28;19.95;;;13.48;;
12878;SDS011;20617;49.476;10.986;2023-03-04T04:47:35;21.85;;;13.05;;
12878;SDS011;20617;49.476;10.986;2023-03-04T04:49:40;20.65;;;14.23;;
12878;SDS011;20617;49.476;10.986;2023-03-04T04:51:45;18.98;;;13.18;;
12878;SDS011;20617;49.476;10.986;2023-03-04T04:53:49;17.85;;;13.07;;
12878;SDS011;20617;49.476;10.986;2023-03-04T04:55:54;19.80;;;12.63;;
12878;SDS011;20617;49.476;10.986;2023-03-04T04:58:02;23.10;;;13.90;;
12878;SDS011;20617;49.476;10.986;2023-03-04T05:00:09;20.33;;;13.07;;
12878;SDS011;20617;49.476;10.986;2023-03-04T05:02:16;21.15;;;13.52;;
12878;SDS011;20617;49.476;10.986;2023-03-04T05:04:21;20.55;;;13.77;;
12878;SDS011;20617;49.476;10.986;2023-03-04T05:06:26;20.10;;;12.93;;
12878;SDS011;20617;49.476;10.986;2023-03-04T05:08:34;20.10;;;13.05;;
12878;SDS011;20617;49.476;10.986;2023-03-04T05:10:39;21.52;;;14.18;;
12878;SDS011;20617;49.476;10.986;2023-03-04T05:12:44;21.52;;;13.27;;
12878;SDS011;20617;49.476;10.986;2023-03-04T05:14:52;22.92;;;13.98;;
12878;SDS011;20617;49.476;10.986;2023-03-04T05:16:57;22.20;;;14.35;;
12878;SDS011;20617;49.476;10.986;2023-03-04T05:19:02;22.95;;;14.20;;
12878;SDS011;20617;49.476;10.986;2023-03-04T05:21:07;20.05;;;12.75;;
12878;SDS011;20617;49.476;10.986;2023-03-04T05:23:12;18.63;;;11.80;;
12878;SDS011;20617;49.476;10.986;2023-03-04T05:25:17;20.75;;;13.45;;
12878;SDS011;20617;49.476;10.986;2023-03-04T05:27:22;21.60;;;13.90;;
12878;SDS011;20617;49.476;10.986;2023-03-04T05:29:27;21.58;;;13.98;;
12878;SDS011;20617;49.476;10.986;2023-03-04T05:31:34;20.48;;;12.95;;
12878;SDS011;20617;49.476;10.986;2023-03-04T05:33:39;23.52;;;15.20;;
12878;SDS011;20617;49.476;10.986;2023-03-04T05:35:44;22.15;;;13.85;;
12878;SDS011;20617;49.476;10.986;2023-03-04T05:37:51;23.13;;;13.63;;
12878;SDS011;20617;49.476;10.986;2023-03-04T05:39:55;26.92;;;14.55;;
12878;SDS011;20617;49.476;10.986;2023-03-04T05:42:00;21.20;;;13.35;;
12878;SDS011;20617;49.476;10.986;2023-03-04T05:46:11;23.23;;;14.00;;
12878;SDS011;20617;49.476;10.986;2023-03-04T05:48:20;23.20;;;13.60;;
12878;SDS011;20617;49.476;10.986;2023-03-04T05:50:25;23.27;;;14.45;;
12878;SDS011;20617;49.476;10.986;2023-03-04T05:52:30;27.80;;;16.08;;
12878;SDS011;20617;49.476;10.986;2023-03-04T05:54:35;26.92;;;15.80;;
12878;SDS011;20617;49.476;10.986;2023-03-04T05:56:40;27.00;;;16.75;;
12878;SDS011;20617;49.476;10.986;2023-03-04T06:00:50;24.00;;;13.57;;
12878;SDS011;20617;49.476;10.986;2023-03-04T06:02:55;26.75;;;16.15;;
12878;SDS011;20617;49.476;10.986;2023-03-04T06:05:02;23.92;;;14.82;;
12878;SDS011;20617;49.476;10.986;2023-03-04T06:07:07;27.40;;;15.98;;
12878;SDS011;20617;49.476;10.986;2023-03-04T06:09:12;23.85;;;14.65;;
12878;SDS011;20617;49.476;10.986;2023-03-04T06:11:17;28.40;;;14.90;;
12878;SDS011;20617;49.476;10.986;2023-03-04T06:13:22;28.15;;;17.48;;
12878;SDS011;20617;49.476;10.986;2023-03-04T06:15:27;26.60;;;15.25;;
12878;SDS011;20617;49.476;10.986;2023-03-04T06:17:32;27.13;;;16.42;;
12878;SDS011;20617;49.476;10.986;2023-03-04T06:19:37;28.13;;;16.63;;
12878;SDS011;20617;49.476;10.986;2023-03-04T06:21:45;28.17;;;15.95;;
12878;SDS011;20617;49.476;10.986;2023-03-04T06:23:49;27.90;;;16.88;;
12878;SDS011;20617;49.476;10.986;2023-03-04T06:25:55;27.90;;;16.55;;
12878;SDS011;20617;49.476;10.986;2023-03-04T06:28:01;27.52;;;16.10;;
12878;SDS011;20617;49.476;10.986;2023-03-04T06:30:06;28.33;;;16.42;;
12878;SDS011;20617;49.476;10.986;2023-03-04T06:32:13;28.23;;;16.65;;
12878;SDS011;20617;49.476;10.986;2023-03-04T06:34:17;24.98;;;15.32;;
12878;SDS011;20617;49.476;10.986;2023-03-04T06:36:22;26.55;;;15.60;;
12878;SDS011;20617;49.476;10.986;2023-03-04T06:38:30;28.38;;;15.68;;
12878;SDS011;20617;49.476;10.986;2023-03-04T06:40:35;27.45;;;15.95;;
12878;SDS011;20617;49.476;10.986;2023-03-04T06:42:40;26.08;;;16.35;;
12878;SDS011;20617;49.476;10.986;2023-03-04T06:44:45;27.27;;;15.93;;
12878;SDS011;20617;49.476;10.986;2023-03-04T06:46:51;26.95;;;14.77;;
12878;SDS011;20617;49.476;10.986;2023-03-04T06:51:05;23.58;;;14.93;;
12878;SDS011;20617;49.476;10.986;2023-03-04T06:53:11;25.67;;;15.80;;
12878;SDS011;20617;49.476;10.986;2023-03-04T06:55:19;25.23;;;16.27;;
12878;SDS011;20617;49.476;10.986;2023-03-04T06:57:24;27.35;;;16.10;;
12878;SDS011;20617;49.476;10.986;2023-03-04T06:59:29;26.95;;;16.55;;
12878;SDS011;20617;49.476;10.986;2023-03-04T07:03:38;29.15;;;17.52;;
12878;SDS011;20617;49.476;10.986;2023-03-04T07:05:43;24.58;;;15.05;;
12878;SDS011;20617;49.476;10.986;2023-03-04T07:07:48;27.85;;;16.50;;
12878;SDS011;20617;49.476;10.986;2023-03-04T07:12:01;24.80;;;14.27;;
12878;SDS011;20617;49.476;10.986;2023-03-04T07:14:06;23.05;;;15.32;;
12878;SDS011;20617;49.476;10.986;2023-03-04T07:16:12;30.25;;;17.08;;
12878;SDS011;20617;49.476;10.986;2023-03-04T07:18:18;26.65;;;16.15;;
12878;SDS011;20617;49.476;10.986;2023-03-04T07:20:23;23.98;;;15.75;;
12878;SDS011;20617;49.476;10.986;2023-03-04T07:22:32;26.95;;;15.82;;
12878;SDS011;20617;49.476;10.986;2023-03-04T07:24:37;24.02;;;14.40;;
12878;SDS011;20617;49.476;10.986;2023-03-04T07:26:42;28.10;;;16.75;;
12878;SDS011;20617;49.476;10.986;2023-03-04T07:28:49;29.08;;;16.75;;
12878;SDS011;20617;49.476;10.986;2023-03-04T07:30:55;24.80;;;14.80;;
12878;SDS011;20617;49.476;10.986;2023-03-04T07:32:59;23.27;;;15.13;;
12878;SDS011;20617;49.476;10.986;2023-03-04T07:35:05;25.38;;;15.13;;
12878;SDS011;20617;49.476;10.986;2023-03-04T07:37:10;24.75;;;15.15;;
12878;SDS011;20617;49.476;10.986;2023-03-04T07:39:15;24.08;;;16.38;;
12878;SDS011;20617;49.476;10.986;2023-03-04T07:41:20;22.15;;;14.30;;
12878;SDS011;20617;49.476;10.986;2023-03-04T07:43:27;25.27;;;15.27;;
12878;SDS011;20617;49.476;10.986;2023-03-04T07:45:34;28.10;;;16.42;;
12878;SDS011;20617;49.476;10.986;2023-03-04T07:47:40;23.83;;;14.63;;
12878;SDS011;20617;49.476;10.986;2023-03-04T07:49:45;24.13;;;14.70;;
12878;SDS011;20617;49.476;10.986;2023-03-04T07:51:50;22.50;;;14.57;;
12878;SDS011;20617;49.476;10.986;2023-03-04T07:53:55;23.63;;;14.60;;
12878;SDS011;20617;49.476;10.986;2023-03-04T07:56:01;20.67;;;14.35;;
12878;SDS011;20617;49.476;10.986;2023-03-04T07:58:07;21.98;;;14.00;;
12878;SDS011;20617;49.476;10.986;2023-03-04T08:00:13;22.65;;;13.90;;
12878;SDS011;20617;49.476;10.986;2023-03-04T08:02:22;20.35;;;13.07;;
12878;SDS011;20617;49.476;10.986;2023-03-04T08:04:27;23.95;;;15.00;;
12878;SDS011;20617;49.476;10.986;2023-03-04T08:06:32;24.77;;;14.60;;
12878;SDS011;20617;49.476;10.986;2023-03-04T08:08:37;23.67;;;14.57;;
12878;SDS011;20617;49.476;10.986;2023-03-04T08:10:43;21.98;;;14.02;;
12878;SDS011;20617;49.476;10.986;2023-03-04T08:14:53;27.35;;;14.75;;
12878;SDS011;20617;49.476;10.986;2023-03-04T08:16:58;20.25;;;13.10;;
12878;SDS011;20617;49.476;10.986;2023-03-04T08:19:05;20.73;;;12.93;;
12878;SDS011;20617;49.476;10.986;2023-03-04T08:21:11;22.98;;;15.45;;
12878;SDS011;20617;49.476;10.986;2023-03-04T08:23:16;22.27;;;14.23;;
12878;SDS011;20617;49.476;10.986;2023-03-04T08:25:22;23.48;;;14.07;;
12878;SDS011;20617;49.476;10.986;2023-03-04T08:27:26;23.73;;;15.75;;
12878;SDS011;20617;49.476;10.986;2023-03-04T08:29:33;21.48;;;13.55;;
12878;SDS011;20617;49.476;10.986;2023-03-04T08:31:38;24.83;;;15.43;;
12878;SDS011;20617;49.476;10.986;2023-03-04T08:33:48;22.80;;;14.18;;
12878;SDS011;20617;49.476;10.986;2023-03-04T08:35:56;23.55;;;14.98;;
12878;SDS011;20617;49.476;10.986;2023-03-04T08:38:01;23.55;;;15.18;;
12878;SDS011;20617;49.476;10.986;2023-03-04T08:40:06;23.80;;;13.75;;
12878;SDS011;20617;49.476;10.986;2023-03-04T08:42:12;20.40;;;13.73;;
12878;SDS011;20617;49.476;10.986;2023-03-04T08:44:17;21.80;;;13.60;;
12878;SDS011;20617;49.476;10.986;2023-03-04T08:46:22;23.63;;;15.02;;
12878;SDS011;20617;49.476;10.986;2023-03-04T08:48:27;24.25;;;14.55;;
12878;SDS011;20617;49.476;10.986;2023-03-04T08:50:32;22.27;;;14.82;;
12878;SDS011;20617;49.476;10.986;2023-03-04T08:52:40;25.05;;;15.95;;
12878;SDS011;20617;49.476;10.986;2023-03-04T08:54:44;23.90;;;15.35;;
12878;SDS011;20617;49.476;10.986;2023-03-04T08:56:50;23.63;;;15.15;;
12878;SDS011;20617;49.476;10.986;2023-03-04T08:58:55;36.63;;;21.67;;
12878;SDS011;20617;49.476;10.986;2023-03-04T09:01:00;29.35;;;19.33;;
12878;SDS011;20617;49.476;10.986;2023-03-04T09:03:06;25.85;;;16.67;;
12878;SDS011;20617;49.476;10.986;2023-03-04T09:05:11;29.63;;;17.88;;
12878;SDS011;20617;49.476;10.986;2023-03-04T09:07:18;25.23;;;16.00;;
12878;SDS011;20617;49.476;10.986;2023-03-04T09:09:26;31.83;;;17.65;;
12878;SDS011;20617;49.476;10.986;2023-03-04T09:11:32;26.42;;;16.90;;
12878;SDS011;20617;49.476;10.986;2023-03-04T09:13:38;25.30;;;15.90;;
12878;SDS011;20617;49.476;10.986;2023-03-04T09:15:44;32.90;;;19.60;;
12878;SDS011;20617;49.476;10.986;2023-03-04T09:17:49;53.97;;;30.95;;
12878;SDS011;20617;49.476;10.986;2023-03-04T09:19:54;37.05;;;23.52;;
12878;SDS011;20617;49.476;10.986;2023-03-04T09:21:59;29.52;;;19.58;;
12878;SDS011;20617;49.476;10.986;2023-03-04T09:24:04;28.30;;;18.80;;
12878;SDS011;20617;49.476;10.986;2023-03-04T09:26:17;22.67;;;16.10;;
12878;SDS011;20617;49.476;10.986;2023-03-04T09:28:24;25.70;;;16.98;;
12878;SDS011;20617;49.476;10.986;2023-03-04T09:30:29;25.20;;;16.15;;
12878;SDS011;20617;49.476;10.986;2023-03-04T09:32:34;24.40;;;14.73;;
12878;SDS011;20617;49.476;10.986;2023-03-04T09:36:44;24.88;;;15.98;;
12878;SDS011;20617;49.476;10.986;2023-03-04T09:38:49;25.92;;;16.83;;
12878;SDS011;20617;49.476;10.986;2023-03-04T09:41:04;26.52;;;16.70;;
12878;SDS011;20617;49.476;10.986;2023-03-04T09:43:16;26.33;;;17.05;;
12878;SDS011;20617;49.476;10.986;2023-03-04T09:45:24;26.67;;;16.98;;
12878;SDS011;20617;49.476;10.986;2023-03-04T09:47:33;27.20;;;17.33;;
12878;SDS011;20617;49.476;10.986;2023-03-04T09:49:41;28.75;;;17.40;;
12878;SDS011;20617;49.476;10.986;2023-03-04T09:51:54;29.98;;;19.08;;
12878;SDS011;20617;49.476;10.986;2023-03-04T09:54:05;25.52;;;17.67;;
12878;SDS011;20617;49.476;10.986;2023-03-04T09:56:11;26.13;;;17.23;;
12878;SDS011;20617;49.476;10.986;2023-03-04T09:58:24;22.77;;;16.48;;
12878;SDS011;20617;49.476;10.986;2023-03-04T10:00:38;27.77;;;17.17;;
12878;SDS011;20617;49.476;10.986;2023-03-04T10:02:46;25.20;;;16.90;;
12878;SDS011;20617;49.476;10.986;2023-03-04T10:05:03;26.48;;;18.08;;
12878;SDS011;20617;49.476;10.986;2023-03-04T10:07:12;23.98;;;17.10;;
12878;SDS011;20617;49.476;10.986;2023-03-04T10:09:22;26.95;;;16.73;;
12878;SDS011;20617;49.476;10.986;2023-03-04T10:11:34;24.13;;;15.23;;
12878;SDS011;20617;49.476;10.986;2023-03-04T10:13:55;25.10;;;16.67;;
12878;SDS011;20617;49.476;10.986;2023-03-04T10:16:07;26.77;;;16.73;;
12878;SDS011;20617;49.476;10.986;2023-03-04T10:18:19;24.48;;;15.98;;
12878;SDS011;20617;49.476;10.986;2023-03-04T10:20:30;23.23;;;16.35;;
12878;SDS011;20617;49.476;10.986;2023-03-04T10:22:43;23.60;;;15.37;;
12878;SDS011;20617;49.476;10.986;2023-03-04T10:24:55;23.45;;;15.85;;
12878;SDS011;20617;49.476;10.986;2023-03-04T10:27:01;21.80;;;15.13;;
12878;SDS011;20617;49.476;10.986;2023-03-04T10:29:14;22.80;;;16.17;;
12878;SDS011;20617;49.476;10.986;2023-03-04T10:31:21;23.00;;;15.10;;
12878;SDS011;20617;49.476;10.986;2023-03-04T10:33:36;20.63;;;15.70;;
12878;SDS011;20617;49.476;10.986;2023-03-04T10:35:44;24.65;;;16.27;;
12878;SDS011;20617;49.476;10.986;2023-03-04T10:37:51;24.67;;;15.38;;
12878;SDS011;20617;49.476;10.986;2023-03-04T10:42:05;21.70;;;14.45;;
12878;SDS011;20617;49.476;10.986;2023-03-04T10:44:29;21.50;;;15.88;;
12878;SDS011;20617;49.476;10.986;2023-03-04T10:46:36;21.92;;;15.88;;
12878;SDS011;20617;49.476;10.986;2023-03-04T10:48:42;23.15;;;15.20;;
12878;SDS011;20617;49.476;10.986;2023-03-04T10:52:51;23.30;;;15.38;;
12878;SDS011;20617;49.476;10.986;2023-03-04T10:54:58;20.60;;;14.38;;
12878;SDS011;20617;49.476;10.986;2023-03-04T10:57:11;22.55;;;15.90;;
12878;SDS011;20617;49.476;10.986;2023-03-04T10:59:32;22.23;;;14.50;;
12878;SDS011;20617;49.476;10.986;2023-03-04T11:01:42;27.13;;;14.88;;
12878;SDS011;20617;49.476;10.986;2023-03-04T11:03:47;20.33;;;14.93;;
12878;SDS011;20617;49.476;10.986;2023-03-04T11:06:02;22.45;;;15.20;;
12878;SDS011;20617;49.476;10.986;2023-03-04T11:08:15;21.45;;;14.70;;
12878;SDS011;20617;49.476;10.986;2023-03-04T11:10:24;20.38;;;14.40;;
12878;SDS011;20617;49.476;10.986;2023-03-04T11:12:32;25.88;;;15.38;;
12878;SDS011;20617;49.476;10.986;2023-03-04T11:14:41;20.52;;;13.73;;
12878;SDS011;20617;49.476;10.986;2023-03-04T11:16:54;21.48;;;14.38;;
12878;SDS011;20617;49.476;10.986;2023-03-04T11:19:01;24.52;;;15.35;;
12878;SDS011;20617;49.476;10.986;2023-03-04T11:21:12;19.65;;;14.00;;
12878;SDS011;20617;49.476;10.986;2023-03-04T11:23:23;22.88;;;15.15;;
12878;SDS011;20617;49.476;10.986;2023-03-04T11:25:36;22.20;;;13.90;;
12878;SDS011;20617;49.476;10.986;2023-03-04T11:27:46;20.73;;;13.68;;
12878;SDS011;20617;49.476;10.986;2023-03-04T11:29:59;25.20;;;15.50;;
12878;SDS011;20617;49.476;10.986;2023-03-04T11:32:17;23.13;;;14.98;;
12878;SDS011;20617;49.476;10.986;2023-03-04T11:34:28;19.98;;;13.75;;
12878;SDS011;20617;49.476;10.986;2023-03-04T11:36:44;20.08;;;15.00;;
12878;SDS011;20617;49.476;10.986;2023-03-04T11:38:58;22.23;;;15.30;;
12878;SDS011;20617;49.476;10.986;2023-03-04T11:41:08;23.95;;;15.40;;
12878;SDS011;20617;49.476;10.986;2023-03-04T11:43:18;23.02;;;16.35;;
12878;SDS011;20617;49.476;10.986;2023-03-04T11:45:31;26.33;;;15.32;;
12878;SDS011;20617;49.476;10.986;2023-03-04T11:47:49;27.17;;;16.30;;
12878;SDS011;20617;49.476;10.986;2023-03-04T11:50:15;25.60;;;16.25;;
12878;SDS011;20617;49.476;10.986;2023-03-04T11:52:37;23.17;;;15.75;;
12878;SDS011;20617;49.476;10.986;2023-03-04T11:55:01;22.02;;;15.38;;
12878;SDS011;20617;49.476;10.986;2023-03-04T11:57:17;25.02;;;15.40;;
12878;SDS011;20617;49.476;10.986;2023-03-04T11:59:37;22.58;;;16.38;;
12878;SDS011;20617;49.476;10.986;2023-03-04T12:04:31;21.02;;;15.18;;
12878;SDS011;20617;49.476;10.986;2023-03-04T12:06:49;22.73;;;16.42;;
12878;SDS011;20617;49.476;10.986;2023-03-04T12:09:16;23.67;;;15.63;;
12878;SDS011;20617;49.476;10.986;2023-03-04T12:11:37;22.23;;;16.25;;
12878;SDS011;20617;49.476;10.986;2023-03-04T12:13:58;22.25;;;15.65;;
12878;SDS011;20617;49.476;10.986;2023-03-04T12:16:24;23.92;;;16.40;;
12878;SDS011;20617;49.476;10.986;2023-03-04T12:18:47;22.92;;;15.30;;
12878;SDS011;20617;49.476;10.986;2023-03-04T12:21:08;25.70;;;15.93;;
12878;SDS011;20617;49.476;10.986;2023-03-04T12:23:33;20.58;;;13.88;;
12878;SDS011;20617;49.476;10.986;2023-03-04T12:25:49;20.83;;;15.00;;
12878;SDS011;20617;49.476;10.986;2023-03-04T12:28:03;23.25;;;16.48;;
12878;SDS011;20617;49.476;10.986;2023-03-04T12:30:29;21.65;;;15.32;;
12878;SDS011;20617;49.476;10.986;2023-03-04T12:32:42;20.00;;;14.50;;
12878;SDS011;20617;49.476;10.986;2023-03-04T12:35:02;21.60;;;14.13;;
12878;SDS011;20617;49.476;10.986;2023-03-04T12:37:29;25.60;;;15.15;;
12878;SDS011;20617;49.476;10.986;2023-03-04T12:39:50;23.25;;;15.25;;
12878;SDS011;20617;49.476;10.986;2023-03-04T12:42:12;24.38;;;14.60;;
12878;SDS011;20617;49.476;10.986;2023-03-04T12:44:24;22.45;;;14.40;;
12878;SDS011;20617;49.476;10.986;2023-03-04T12:46:31;24.48;;;14.32;;
12878;SDS011;20617;49.476;10.986;2023-03-04T12:48:47;22.65;;;14.30;;
12878;SDS011;20617;49.476;10.986;2023-03-04T12:51:15;19.88;;;13.65;;